EFHK/HEL METAR and TAF weather

Enter ICAO airport designator
Station Type Date Time Source
EFHK METAR 2018/06/25 16:50 UTC NOAA

EFHK 251650Z 11009KT 9999 SCT025 17/12 Q1016 NOSIG


Station Type Date Time Source
EFHK Decoded METAR 2018/06/25 16:50 UTC NOAA

Helsinki-Vantaa, Finland (EFHK) 60-19N 024-58E 56M
Jun 25, 2018 - 12:50 PM EDT / 2018.06.25 1650 UTC
Wind: from the ESE (110 degrees) at 10 MPH (9 KT):0
Visibility: greater than 7 mile(s):0
Sky conditions: partly cloudy
Temperature: 62 F (17 C)
Dew Point: 53 F (12 C)
Relative Humidity: 72%
Pressure (altimeter): 30.00 in. Hg (1016 hPa)
ob: EFHK 251650Z 11009KT 9999 SCT025 17/12 Q1016 NOSIG
cycle: 17

Station Type Date Time Source
EFHK TAF 2018/06/25 15:45 UTC NOAA

TAF EFHK 251427Z 2515/2615 18006KT 9999 SCT030


Example: see airport list